Time;durP1;ratioP1;P1;durP2;ratioP2;P2;SDS_P1;SDS_P2;PMS_P1;PMS_P2;Temp;Humidity;BMP_temperature;BMP_pressure;BME280_temperature;BME280_humidity;BME280_pressure;Samples;Min_cycle;Max_cycle;Signal;HPM_P1;HPM_P2
2021/01/27 00:01:41;;;;;;;33.63;20.47;;;;;;;;;;5014432;28;20026;-70
2021/01/27 00:04:07;;;;;;;32.07;19.70;;;;;;;;;;5014446;28;20026;-70
2021/01/27 00:06:33;;;;;;;30.80;19.23;;;;;;;;;;5014656;28;20109;-69
2021/01/27 00:08:59;;;;;;;33.73;19.33;;;;;;;;;;5014411;28;20095;-70
2021/01/27 00:11:25;;;;;;;32.30;19.00;;;;;;;;;;5014295;28;20030;-69
2021/01/27 00:13:51;;;;;;;32.77;19.87;;;;;;;;;;5014247;28;20113;-70
2021/01/27 00:16:17;;;;;;;32.60;19.50;;;;;;;;;;5013286;28;20022;-70
2021/01/27 00:18:43;;;;;;;27.30;17.43;;;;;;;;;;5014473;28;20084;-69
2021/01/27 00:21:09;;;;;;;26.57;17.00;;;;;;;;;;5013985;28;20046;-69
2021/01/27 00:23:35;;;;;;;25.67;17.00;;;;;;;;;;5013891;28;20054;-70
2021/01/27 00:26:01;;;;;;;26.83;16.73;;;;;;;;;;5014047;28;20026;-69
2021/01/27 00:28:27;;;;;;;24.93;15.53;;;;;;;;;;5013812;28;20040;-70
2021/01/27 00:30:53;;;;;;;25.13;15.57;;;;;;;;;;5014419;28;20048;-70
2021/01/27 00:33:19;;;;;;;53.30;27.57;;;;;;;;;;5014221;28;20030;-70
2021/01/27 00:35:47;;;;;;;26.90;17.37;;;;;;;;;;5013995;28;20040;-69
2021/01/27 00:38:18;;;;;;;21.97;14.03;;;;;;;;;;5014221;28;20037;-69
2021/01/27 00:40:45;;;;;;;26.90;14.70;;;;;;;;;;5014036;28;20057;-69
2021/01/27 00:43:11;;;;;;;24.93;14.67;;;;;;;;;;5014019;28;20498;-69
2021/01/27 00:45:37;;;;;;;22.17;13.60;;;;;;;;;;5013753;28;20033;-69
2021/01/27 00:48:03;;;;;;;28.27;14.63;;;;;;;;;;5013648;28;20116;-69
2021/01/27 00:50:29;;;;;;;25.97;13.87;;;;;;;;;;5013887;28;20120;-69
2021/01/27 00:52:56;;;;;;;21.30;14.53;;;;;;;;;;5013813;28;20060;-69
2021/01/27 00:55:23;;;;;;;69.90;32.53;;;;;;;;;;5013662;28;20096;-70
2021/01/27 00:57:50;;;;;;;36.33;19.20;;;;;;;;;;5013887;28;20030;-69
2021/01/27 01:00:20;;;;;;;130.53;57.67;;;;;;;;;;5013709;28;20046;-69
2021/01/27 01:02:47;;;;;;;27.07;16.03;;;;;;;;;;5013724;28;20125;-69
2021/01/27 01:05:15;;;;;;;24.03;14.23;;;;;;;;;;5013505;28;20026;-69
2021/01/27 01:07:46;;;;;;;23.87;14.10;;;;;;;;;;5013307;28;20026;-70
2021/01/27 01:10:12;;;;;;;27.87;13.67;;;;;;;;;;5013542;28;20375;-69
2021/01/27 01:12:39;;;;;;;24.77;14.03;;;;;;;;;;5013519;28;20024;-69
2021/01/27 01:15:05;;;;;;;27.30;13.83;;;;;;;;;;5013478;28;20502;-69
2021/01/27 01:17:31;;;;;;;24.03;13.20;;;;;;;;;;5013396;28;20426;-69
2021/01/27 01:19:57;;;;;;;25.20;13.97;;;;;;;;;;5013137;28;20041;-69
2021/01/27 01:22:25;;;;;;;21.03;12.90;;;;;;;;;;5013557;28;20486;-69
2021/01/27 01:24:51;;;;;;;17.60;10.97;;;;;;;;;;5013215;28;20022;-69
2021/01/27 01:27:17;;;;;;;52.47;25.57;;;;;;;;;;5012991;28;20026;-69
2021/01/27 01:29:43;;;;;;;35.97;17.83;;;;;;;;;;5013262;28;20038;-69
2021/01/27 01:32:09;;;;;;;70.17;34.13;;;;;;;;;;5013429;28;20045;-69
2021/01/27 01:34:35;;;;;;;29.33;16.77;;;;;;;;;;5013145;28;20029;-69
2021/01/27 01:37:01;;;;;;;24.70;14.37;;;;;;;;;;5011865;28;20029;-69
2021/01/27 01:39:27;;;;;;;27.23;16.13;;;;;;;;;;5010614;28;20120;-69
2021/01/27 01:41:53;;;;;;;33.47;18.40;;;;;;;;;;5010688;28;20045;-69
2021/01/27 01:44:19;;;;;;;29.23;17.70;;;;;;;;;;5013065;28;20018;-69
2021/01/27 01:46:45;;;;;;;27.20;15.57;;;;;;;;;;5013027;28;20053;-69
2021/01/27 01:49:13;;;;;;;24.33;14.77;;;;;;;;;;5012800;28;20037;-69
2021/01/27 01:51:55;;;;;;;28.20;16.17;;;;;;;;;;5012992;28;20072;-70
2021/01/27 01:54:33;;;;;;;104.27;53.43;;;;;;;;;;5013112;28;20542;-69
2021/01/27 01:57:02;;;;;;;56.70;30.13;;;;;;;;;;5011805;28;20387;-69
2021/01/27 01:59:30;;;;;;;27.97;15.70;;;;;;;;;;5010188;28;20058;-69
2021/01/27 02:02:01;;;;;;;25.73;15.73;;;;;;;;;;5010345;28;20450;-70
2021/01/27 02:04:35;;;;;;;29.00;15.30;;;;;;;;;;5011112;28;20030;-69
2021/01/27 02:07:01;;;;;;;26.17;15.40;;;;;;;;;;5012857;28;20081;-69
2021/01/27 02:09:27;;;;;;;31.00;16.77;;;;;;;;;;5012806;28;20034;-69
2021/01/27 02:11:59;;;;;;;26.70;14.73;;;;;;;;;;5012744;28;20471;-69
2021/01/27 02:14:25;;;;;;;21.83;14.03;;;;;;;;;;5012785;28;20442;-69
2021/01/27 02:16:54;;;;;;;26.50;14.90;;;;;;;;;;5012989;28;20284;-69
2021/01/27 02:19:32;;;;;;;23.50;14.07;;;;;;;;;;5012547;28;20044;-69
2021/01/27 02:22:01;;;;;;;21.93;13.80;;;;;;;;;;5012279;28;20061;-69
2021/01/27 02:24:27;;;;;;;21.83;13.33;;;;;;;;;;5012613;28;20363;-69
2021/01/27 02:27:06;;;;;;;24.17;13.93;;;;;;;;;;5013082;28;20375;-69
2021/01/27 02:29:50;;;;;;;22.80;14.77;;;;;;;;;;5012521;28;20460;-69
2021/01/27 02:32:35;;;;;;;23.17;13.67;;;;;;;;;;5012933;28;20097;-69
2021/01/27 02:35:19;;;;;;;22.13;13.27;;;;;;;;;;5012804;28;20026;-70
2021/01/27 02:37:49;;;;;;;22.37;13.97;;;;;;;;;;5012647;28;20579;-69
2021/01/27 02:40:19;;;;;;;20.83;12.73;;;;;;;;;;5016207;28;20065;-69
2021/01/27 02:42:47;;;;;;;22.47;12.73;;;;;;;;;;5015855;28;20030;-69
2021/01/27 02:45:13;;;;;;;20.90;12.37;;;;;;;;;;5015780;28;20026;-69
2021/01/27 02:47:51;;;;;;;20.83;12.13;;;;;;;;;;5015977;28;20057;-69
2021/01/27 02:50:23;;;;;;;20.00;12.17;;;;;;;;;;5015705;28;20034;-70
2021/01/27 02:53:01;;;;;;;25.00;13.33;;;;;;;;;;5016101;28;20026;-69
2021/01/27 02:55:31;;;;;;;28.70;14.27;;;;;;;;;;5015950;28;20036;-69
2021/01/27 02:58:03;;;;;;;36.47;13.13;;;;;;;;;;5015472;28;20113;-69
2021/01/27 03:00:32;;;;;;;22.80;12.43;;;;;;;;;;5015854;28;20422;-69
2021/01/27 03:03:02;;;;;;;17.03;11.63;;;;;;;;;;5015642;28;20030;-69
2021/01/27 03:05:29;;;;;;;19.37;11.63;;;;;;;;;;5016138;28;20092;-69
2021/01/27 03:08:00;;;;;;;26.20;12.40;;;;;;;;;;5015738;28;20029;-69
2021/01/27 03:10:30;;;;;;;26.23;11.73;;;;;;;;;;5015809;28;20478;-69
2021/01/27 03:12:56;;;;;;;17.70;11.17;;;;;;;;;;5015543;28;20030;-69
2021/01/27 03:15:22;;;;;;;20.73;11.53;;;;;;;;;;5015625;28;20032;-69
2021/01/27 03:17:52;;;;;;;20.30;11.63;;;;;;;;;;5015567;28;20428;-69
2021/01/27 03:20:28;;;;;;;18.43;11.67;;;;;;;;;;5015345;28;20437;-70
2021/01/27 03:23:21;;;;;;;23.13;12.00;;;;;;;;;;5015205;28;20057;-69
2021/01/27 03:25:53;;;;;;;20.60;11.67;;;;;;;;;;5014741;28;20104;-69
2021/01/27 03:28:48;;;;;;;20.47;12.13;;;;;;;;;;5015465;28;20426;-69
2021/01/27 03:31:14;;;;;;;20.03;11.97;;;;;;;;;;5014479;28;20277;-69
2021/01/27 03:33:50;;;;;;;20.00;12.47;;;;;;;;;;5015252;28;20099;-69
2021/01/27 03:36:16;;;;;;;22.13;12.93;;;;;;;;;;5015281;28;20038;-69
2021/01/27 03:38:53;;;;;;;21.70;12.43;;;;;;;;;;5014876;28;20378;-69
2021/01/27 03:41:30;;;;;;;24.00;13.73;;;;;;;;;;5014999;28;20034;-69
2021/01/27 03:44:08;;;;;;;21.07;13.23;;;;;;;;;;5014930;28;20026;-69
2021/01/27 03:46:41;;;;;;;24.97;14.50;;;;;;;;;;5015250;28;20042;-70
2021/01/27 03:49:23;;;;;;;22.40;13.47;;;;;;;;;;5014580;28;20034;-69
2021/01/27 03:51:53;;;;;;;24.27;14.47;;;;;;;;;;5014913;28;20471;-69
2021/01/27 03:54:20;;;;;;;28.00;14.20;;;;;;;;;;5014732;28;20108;-69
2021/01/27 03:57:02;;;;;;;24.27;13.57;;;;;;;;;;5014682;28;20026;-69
2021/01/27 03:59:28;;;;;;;26.03;13.87;;;;;;;;;;5014825;28;20026;-69
2021/01/27 04:01:56;;;;;;;22.67;12.93;;;;;;;;;;5014878;28;20518;-69
2021/01/27 04:04:22;;;;;;;20.50;12.27;;;;;;;;;;5014861;28;20050;-69
2021/01/27 04:06:48;;;;;;;21.90;12.03;;;;;;;;;;5014825;28;20029;-69
2021/01/27 04:09:15;;;;;;;21.60;12.90;;;;;;;;;;5014418;28;20066;-69
2021/01/27 04:11:41;;;;;;;27.07;14.30;;;;;;;;;;5014575;28;20026;-69
2021/01/27 04:14:07;;;;;;;26.60;13.70;;;;;;;;;;5014560;28;20018;-69
2021/01/27 04:16:34;;;;;;;22.83;13.40;;;;;;;;;;5014697;28;20030;-69
2021/01/27 04:19:01;;;;;;;25.00;12.43;;;;;;;;;;5014329;28;20030;-69
2021/01/27 04:21:27;;;;;;;20.60;12.87;;;;;;;;;;5014298;28;20046;-69
2021/01/27 04:23:53;;;;;;;21.63;13.37;;;;;;;;;;5014288;28;20030;-69
2021/01/27 04:26:19;;;;;;;19.47;11.73;;;;;;;;;;5014334;28;20058;-70
2021/01/27 04:28:45;;;;;;;21.97;12.23;;;;;;;;;;5013972;28;20038;-69
2021/01/27 04:31:11;;;;;;;20.40;11.93;;;;;;;;;;5014224;28;20030;-69
2021/01/27 04:33:38;;;;;;;22.17;11.27;;;;;;;;;;5014052;28;20026;-69
2021/01/27 04:36:05;;;;;;;18.87;11.27;;;;;;;;;;5014112;28;20053;-69
2021/01/27 04:38:31;;;;;;;18.37;10.77;;;;;;;;;;5013831;28;20030;-69
2021/01/27 04:40:58;;;;;;;16.73;10.33;;;;;;;;;;5013879;28;20026;-69
2021/01/27 04:43:28;;;;;;;20.20;10.20;;;;;;;;;;5014244;28;20034;-69
2021/01/27 04:46:09;;;;;;;24.03;10.63;;;;;;;;;;5013879;28;20433;-69
2021/01/27 04:48:41;;;;;;;15.33;10.20;;;;;;;;;;5012607;28;20427;-69
2021/01/27 04:51:10;;;;;;;17.47;10.40;;;;;;;;;;5013844;28;20108;-69
2021/01/27 04:53:59;;;;;;;17.20;10.50;;;;;;;;;;5013505;28;20501;-69
2021/01/27 04:57:03;;;;;;;20.03;9.83;;;;;;;;;;5013943;28;20418;-69
2021/01/27 04:59:37;;;;;;;20.97;10.93;;;;;;;;;;5011704;28;20120;-69
2021/01/27 05:02:14;;;;;;;17.20;11.17;;;;;;;;;;5011159;28;20474;-69
2021/01/27 05:04:40;;;;;;;20.50;11.70;;;;;;;;;;5012866;28;20442;-69
2021/01/27 05:07:08;;;;;;;19.47;11.10;;;;;;;;;;5013719;28;20041;-69
2021/01/27 05:09:37;;;;;;;24.30;13.20;;;;;;;;;;5013793;28;20116;-69
2021/01/27 05:12:05;;;;;;;18.50;12.20;;;;;;;;;;5013530;28;20088;-69
2021/01/27 05:14:31;;;;;;;19.27;10.90;;;;;;;;;;5013516;28;20517;-69
2021/01/27 05:16:59;;;;;;;17.30;10.27;;;;;;;;;;5013523;28;20427;-70
2021/01/27 05:19:25;;;;;;;13.97;8.50;;;;;;;;;;5013173;28;20030;-69
2021/01/27 05:21:52;;;;;;;13.33;7.73;;;;;;;;;;5013759;28;20411;-69
2021/01/27 05:24:18;;;;;;;10.57;5.70;;;;;;;;;;5013163;28;20038;-69
2021/01/27 05:26:54;;;;;;;9.83;5.53;;;;;;;;;;5013342;28;20026;-69
2021/01/27 05:29:29;;;;;;;7.87;5.03;;;;;;;;;;5013227;28;20487;-69
2021/01/27 05:32:13;;;;;;;9.07;5.27;;;;;;;;;;5013172;28;20029;-70
2021/01/27 05:34:44;;;;;;;13.97;7.20;;;;;;;;;;5013233;28;20128;-69
2021/01/27 05:37:15;;;;;;;12.33;6.97;;;;;;;;;;5013356;28;20474;-69
2021/01/27 05:39:42;;;;;;;17.07;10.03;;;;;;;;;;5013373;28;20101;-69
2021/01/27 05:42:14;;;;;;;17.70;10.90;;;;;;;;;;5013126;28;20033;-69
2021/01/27 05:44:40;;;;;;;18.43;10.67;;;;;;;;;;5013048;28;20029;-69
2021/01/27 05:47:20;;;;;;;21.80;11.23;;;;;;;;;;5013136;28;20457;-69
2021/01/27 05:49:46;;;;;;;23.07;10.30;;;;;;;;;;5013398;28;20045;-69
2021/01/27 05:52:20;;;;;;;17.50;10.63;;;;;;;;;;5013354;28;20021;-69
2021/01/27 05:54:46;;;;;;;16.03;9.63;;;;;;;;;;5013319;28;20422;-69
2021/01/27 05:57:33;;;;;;;11.93;7.90;;;;;;;;;;5013180;28;20538;-69
2021/01/27 06:00:08;;;;;;;15.00;7.93;;;;;;;;;;5013123;28;20491;-69
2021/01/27 06:02:41;;;;;;;11.63;6.60;;;;;;;;;;5012960;28;20030;-69
2021/01/27 06:05:08;;;;;;;9.43;6.13;;;;;;;;;;5013384;28;20025;-69
2021/01/27 06:07:34;;;;;;;12.70;7.30;;;;;;;;;;5012943;28;20037;-69
2021/01/27 06:10:15;;;;;;;13.60;7.30;;;;;;;;;;5012811;28;20038;-69
2021/01/27 06:12:41;;;;;;;14.97;7.60;;;;;;;;;;5013029;28;20049;-69
2021/01/27 06:15:12;;;;;;;12.07;8.20;;;;;;;;;;5017164;28;20470;-69
2021/01/27 06:17:46;;;;;;;14.53;8.97;;;;;;;;;;5016806;28;20088;-69
2021/01/27 06:20:12;;;;;;;13.77;8.37;;;;;;;;;;5016596;28;20046;-69
2021/01/27 06:22:56;;;;;;;18.50;9.43;;;;;;;;;;5016441;28;20075;-69
2021/01/27 06:25:32;;;;;;;17.43;10.13;;;;;;;;;;5016634;28;20475;-69
2021/01/27 06:28:16;;;;;;;15.20;10.40;;;;;;;;;;5016324;28;20029;-69
2021/01/27 06:31:01;;;;;;;14.73;9.53;;;;;;;;;;5016351;28;20034;-69
2021/01/27 06:33:36;;;;;;;12.13;7.97;;;;;;;;;;5016292;28;20030;-69
2021/01/27 06:36:05;;;;;;;18.37;7.87;;;;;;;;;;5016294;28;20029;-69
2021/01/27 06:38:59;;;;;;;12.60;8.00;;;;;;;;;;5016343;28;20030;-69
2021/01/27 06:41:37;;;;;;;13.90;8.13;;;;;;;;;;5016972;28;20422;-69
2021/01/27 06:44:03;;;;;;;12.87;7.40;;;;;;;;;;5016313;28;20021;-69
2021/01/27 06:46:48;;;;;;;15.00;7.43;;;;;;;;;;5016081;28;20022;-69
2021/01/27 06:49:14;;;;;;;16.20;8.00;;;;;;;;;;5014389;28;20442;-70
2021/01/27 06:51:46;;;;;;;16.63;8.20;;;;;;;;;;5016103;28;20029;-70
2021/01/27 06:54:27;;;;;;;13.38;8.48;;;;;;;;;;5016238;28;20034;-69
2021/01/27 06:57:00;;;;;;;20.40;9.50;;;;;;;;;;5015950;28;20026;-69
2021/01/27 06:59:43;;;;;;;15.05;8.57;;;;;;;;;;5015852;28;20037;-69
2021/01/27 07:02:21;;;;;;;13.13;8.47;;;;;;;;;;5015948;28;20022;-69
2021/01/27 07:04:47;;;;;;;16.27;6.90;;;;;;;;;;5015723;28;20570;-69
2021/01/27 07:07:19;;;;;;;17.87;6.53;;;;;;;;;;5015857;28;20025;-69
2021/01/27 07:09:45;;;;;;;13.23;7.07;;;;;;;;;;5015648;28;20046;-69
2021/01/27 07:12:18;;;;;;;9.47;6.13;;;;;;;;;;5015828;28;20479;-69
2021/01/27 07:14:44;;;;;;;;;;;;;;;;;;5013965;28;20473;-70
2021/01/27 07:17:16;;;;;;;15.10;6.30;;;;;;;;;;5012804;28;20000;-71
2021/01/27 07:20:01;;;;;;;11.88;6.60;;;;;;;;;;5012284;28;20038;-69
2021/01/27 07:22:30;;;;;;;10.70;6.30;;;;;;;;;;5014546;28;20041;-70
2021/01/27 07:25:05;;;;;;;10.47;6.70;;;;;;;;;;5014925;28;20038;-70
2021/01/27 07:27:34;;;;;;;16.20;8.37;;;;;;;;;;5015627;28;20025;-71
2021/01/27 07:30:10;;;;;;;11.90;8.33;;;;;;;;;;5015321;28;20066;-71
2021/01/27 07:32:41;;;;;;;17.43;8.97;;;;;;;;;;5015011;28;20040;-73
2021/01/27 07:35:10;;;;;;;14.17;8.37;;;;;;;;;;5011152;28;20036;-71
2021/01/27 07:37:44;;;;;;;12.77;7.60;;;;;;;;;;5010256;28;20091;-72
2021/01/27 07:40:11;;;;;;;14.67;7.00;;;;;;;;;;5014850;28;20033;-71
2021/01/27 07:42:37;;;;;;;12.27;7.13;;;;;;;;;;5014735;28;20426;-71
2021/01/27 07:45:09;;;;;;;13.97;8.77;;;;;;;;;;5014804;28;20108;-71
2021/01/27 07:47:46;;;;;;;13.25;8.50;;;;;;;;;;5014078;28;20201;-71
2021/01/27 07:50:12;;;;;;;13.47;7.57;;;;;;;;;;5014378;28;20040;-71
2021/01/27 07:52:42;;;;;;;11.00;6.37;;;;;;;;;;5002279;28;20026;-71
2021/01/27 07:55:34;;;;;;;13.90;7.00;;;;;;;;;;4995217;28;20106;-70
2021/01/27 07:58:11;;;;;;;13.30;7.67;;;;;;;;;;5003991;28;20034;-71
2021/01/27 08:00:43;;;;;;;21.23;8.63;;;;;;;;;;5013965;28;20265;-71
2021/01/27 08:03:15;;;;;;;24.87;11.30;;;;;;;;;;5014247;28;20109;-71
2021/01/27 08:05:42;;;;;;;19.73;10.33;;;;;;;;;;5014093;28;20471;-71
2021/01/27 08:08:16;;;;;;;23.07;11.57;;;;;;;;;;5013819;28;20033;-70
2021/01/27 08:10:42;;;;;;;25.83;11.47;;;;;;;;;;5014520;28;20029;-71
2021/01/27 08:13:27;;;;;;;21.97;11.83;;;;;;;;;;5013724;28;20026;-71
2021/01/27 08:16:06;;;;;;;21.83;11.93;;;;;;;;;;5014207;28;20390;-71
2021/01/27 08:18:32;;;;;;;23.10;12.07;;;;;;;;;;5008476;28;20034;-71
2021/01/27 08:21:16;;;;;;;18.83;12.63;;;;;;;;;;5013921;28;20042;-71
2021/01/27 08:23:46;;;;;;;21.47;12.03;;;;;;;;;;5013774;28;20128;-70
2021/01/27 08:26:12;;;;;;;20.43;12.10;;;;;;;;;;5013501;28;20061;-71
2021/01/27 08:28:41;;;;;;;21.87;12.00;;;;;;;;;;5012641;28;20049;-72
2021/01/27 08:31:10;;;;;;;26.27;13.90;;;;;;;;;;5012236;28;20033;-71
2021/01/27 08:33:45;;;;;;;22.93;12.30;;;;;;;;;;5012581;28;20057;-70
2021/01/27 08:36:15;;;;;;;22.17;12.90;;;;;;;;;;5012631;28;20032;-72
2021/01/27 08:38:44;;;;;;;20.50;11.40;;;;;;;;;;5013961;28;20029;-71
2021/01/27 08:41:12;;;;;;;20.77;12.27;;;;;;;;;;5013372;28;20029;-71
2021/01/27 08:43:42;;;;;;;22.27;11.97;;;;;;;;;;5013715;28;20022;-71
2021/01/27 08:46:25;;;;;;;24.33;13.23;;;;;;;;;;5013508;28;20438;-70
2021/01/27 08:48:52;;;;;;;28.23;13.02;;;;;;;;;;5012630;28;20030;-72
2021/01/27 08:51:36;;;;;;;24.17;12.57;;;;;;;;;;5013379;28;20022;-70
2021/01/27 08:54:20;;;;;;;23.70;13.53;;;;;;;;;;5013100;28;20025;-70
2021/01/27 08:57:09;;;;;;;17.70;11.67;;;;;;;;;;5011211;28;20168;-70
2021/01/27 08:59:50;;;;;;;22.00;11.87;;;;;;;;;;4996373;28;20069;-69
2021/01/27 09:02:36;;;;;;;21.43;10.07;;;;;;;;;;4994009;28;20144;-71
2021/01/27 09:05:03;;;;;;;14.67;8.43;;;;;;;;;;4993721;28;20033;-69
2021/01/27 09:07:29;;;;;;;12.83;7.97;;;;;;;;;;4993068;28;20069;-70
2021/01/27 09:09:55;;;;;;;14.27;8.03;;;3.10;73.40;;;;;;4994038;28;20039;-70
2021/01/27 09:12:26;;;;;;;15.97;9.40;;;;;;;;;;4993874;28;20031;-70
2021/01/27 09:14:53;;;;;;;16.00;9.23;;;;;;;;;;4993809;28;20034;-70
2021/01/27 09:17:20;;;;;;;12.73;8.03;;;;;;;;;;4993648;28;20022;-69
2021/01/27 09:19:46;;;;;;;13.47;7.73;;;;;;;;;;4993485;28;20042;-70
2021/01/27 09:22:24;;;;;;;12.23;6.43;;;;;;;;;;4993983;28;20037;-71
2021/01/27 09:24:52;;;;;;;10.50;5.90;;;;;;;;;;4994110;28;20027;-69
2021/01/27 09:27:20;;;;;;;14.53;7.17;;;;;;;;;;4994029;28;20101;-70
2021/01/27 09:29:46;;;;;;;13.63;7.40;;;;;;;;;;4993512;28;20408;-70
2021/01/27 09:32:16;;;;;;;14.23;7.87;;;;;;;;;;4993627;28;20029;-70
2021/01/27 09:34:43;;;;;;;13.50;8.47;;;;;;;;;;4993823;28;20032;-70
2021/01/27 09:37:12;;;;;;;14.20;9.10;;;;;;;;;;4993631;28;20084;-70
2021/01/27 09:39:41;;;;;;;13.97;8.03;;;;;;;;;;4993698;28;20049;-69
2021/01/27 09:42:19;;;;;;;10.93;6.83;;;;;;;;;;4993693;28;20037;-69
2021/01/27 09:44:47;;;;;;;18.37;6.97;;;;;;;;;;4993470;28;20026;-69
2021/01/27 09:47:14;;;;;;;15.20;7.33;;;;;;;;;;4994033;28;20026;-71
2021/01/27 09:49:48;;;;;;;18.63;8.00;;;;;;;;;;4997656;28;20038;-70
2021/01/27 09:52:15;;;;;;;18.77;9.00;;;;;;;;;;4997642;28;20499;-69
2021/01/27 09:54:42;;;;;;;21.07;9.17;;;;;;;;;;4997642;28;20031;-70
2021/01/27 09:57:10;;;;;;;17.60;9.40;;;;;;;;;;4997302;28;20022;-69
2021/01/27 09:59:36;;;;;;;15.90;8.73;;;;;;;;;;5013218;28;20029;-70
2021/01/27 10:02:02;;;;;;;16.17;9.37;;;;;;;;;;5017135;28;20105;-69
2021/01/27 10:04:36;;;;;;;14.93;8.90;;;;;;;;;;5016813;28;20072;-70
2021/01/27 10:07:08;;;;;;;15.23;7.20;;;;;;;;;;5016994;28;20097;-69
2021/01/27 10:09:46;;;;;;;13.73;6.75;;;;;;;;;;5016622;28;20034;-69
2021/01/27 10:12:17;;;;;;;9.43;5.80;;;;;;;;;;5016398;28;20030;-69
2021/01/27 10:14:44;;;;;;;8.83;5.03;;;;;;;;;;5016257;28;20029;-69
2021/01/27 10:17:11;;;;;;;13.33;5.10;;;;;;;;;;5016579;28;20054;-69
2021/01/27 10:19:43;;;;;;;5.93;3.90;;;;;;;;;;5016521;28;20119;-71
2021/01/27 10:22:09;;;;;;;7.37;4.33;;;;;;;;;;5016587;28;20022;-71
2021/01/27 10:24:44;;;;;;;9.20;5.50;;;;;;;;;;5016467;28;20103;-70
2021/01/27 10:27:15;;;;;;;7.60;4.50;;;;;;;;;;5016050;28;20029;-70
2021/01/27 10:29:41;;;;;;;9.73;5.13;;;;;;;;;;5013518;28;20041;-70
2021/01/27 10:32:19;;;;;;;10.30;4.97;;;;;;;;;;5014544;28;20026;-71
2021/01/27 10:34:46;;;;;;;8.07;4.83;;;;;;;;;;5015825;28;20033;-70
2021/01/27 10:37:29;;;;;;;5.90;3.80;;;;;;;;;;5015171;28;20054;-70
2021/01/27 10:40:14;;;;;;;7.47;3.83;;;;;;;;;;5014250;28;20022;-71
2021/01/27 10:42:41;;;;;;;6.77;3.60;;;;;;;;;;5013768;28;20053;-69
2021/01/27 10:45:22;;;;;;;6.97;3.20;;;;;;;;;;5015204;28;20057;-69
2021/01/27 10:47:54;;;;;;;5.63;2.73;;;;;;;;;;5015424;28;20037;-69
2021/01/27 10:50:20;;;;;;;4.47;3.22;;;;;;;;;;5015444;28;20036;-70
2021/01/27 10:52:49;;;;;;;4.40;3.20;;;;;;;;;;5014424;28;20108;-69
2021/01/27 10:55:15;;;;;;;4.90;3.20;;;;;;;;;;5014228;28;20156;-70
2021/01/27 10:57:41;;;;;;;5.13;3.13;;;;;;;;;;5014950;28;20482;-69
2021/01/27 11:00:12;;;;;;;5.73;3.33;;;;;;;;;;5014647;28;20033;-70
2021/01/27 11:02:38;;;;;;;8.63;3.27;;;;;;;;;;5015283;28;20029;-74
2021/01/27 11:05:04;;;;;;;10.60;3.27;;;;;;;;;;5015195;28;20021;-72
2021/01/27 11:07:30;;;;;;;8.20;3.47;;;;;;;;;;5014751;28;20030;-72
2021/01/27 11:09:56;;;;;;;4.87;3.43;;;;;;;;;;5014594;28;20038;-73
2021/01/27 11:12:22;;;;;;;7.27;4.80;;;;;;;;;;5014946;28;20022;-73
2021/01/27 11:14:48;;;;;;;6.47;4.03;;;;;;;;;;5015045;28;20017;-72
2021/01/27 11:17:14;;;;;;;5.73;3.80;;;;;;;;;;5015541;28;20531;-72
2021/01/27 11:19:41;;;;;;;7.90;4.37;;;;;;;;;;5014757;28;20476;-72
2021/01/27 11:22:07;;;;;;;6.50;4.17;;;;;;;;;;5014756;28;20092;-73
2021/01/27 11:24:33;;;;;;;8.57;4.37;;;;;;;;;;5014534;28;20034;-72
2021/01/27 11:26:59;;;;;;;6.37;3.97;;;;;;;;;;5005484;28;20037;-72
2021/01/27 11:29:25;;;;;;;7.30;4.50;;;;;;;;;;4997215;28;20391;-71
2021/01/27 11:31:51;;;;;;;6.90;4.60;;;;;;;;;;4994962;28;20038;-70
2021/01/27 11:34:17;;;;;;;6.67;4.53;;;;;;;;;;4995524;28;20109;-71
2021/01/27 11:36:44;;;;;;;7.53;4.43;;;;;;;;;;4994206;28;20034;-71
2021/01/27 11:39:10;;;;;;;6.40;4.20;;;;;;;;;;4994771;28;20464;-71
2021/01/27 11:41:36;;;;;;;6.30;4.10;;;;;;;;;;4994987;28;20026;-71
2021/01/27 11:44:03;;;;;;;6.57;4.40;;;;;;;;;;4993130;28;20526;-70
2021/01/27 11:46:29;;;;;;;7.17;4.20;;;;;;;;;;4995423;28;20395;-71
2021/01/27 11:48:55;;;;;;;6.67;4.33;;;;;;;;;;4994943;28;20042;-71
2021/01/27 11:51:21;;;;;;;6.93;4.20;;;;;;;;;;4995264;28;20033;-70
2021/01/27 11:53:47;;;;;;;6.80;4.13;;;;;;;;;;4995054;28;20022;-70
2021/01/27 11:56:13;;;;;;;7.90;3.97;;;;;;;;;;4993802;28;20093;-71
2021/01/27 11:58:40;;;;;;;6.73;4.10;;;;;;;;;;4994839;28;20497;-70
2021/01/27 12:01:06;;;;;;;5.43;3.33;;;;;;;;;;4994546;28;20097;-71
2021/01/27 12:03:32;;;;;;;5.80;4.13;;;;;;;;;;4994476;28;20026;-71
2021/01/27 12:05:58;;;;;;;4.83;3.53;;;;;;;;;;4994835;28;20029;-70
2021/01/27 12:08:25;;;;;;;8.53;4.20;;;;;;;;;;4993569;28;20121;-71
2021/01/27 12:10:51;;;;;;;5.50;3.63;;;;;;;;;;4993875;28;20069;-70
2021/01/27 12:13:18;;;;;;;5.53;3.67;;;;;;;;;;4995005;28;20019;-70
2021/01/27 12:15:44;;;;;;;5.67;3.87;;;;;;;;;;4994776;28;20483;-70
2021/01/27 12:18:11;;;;;;;6.10;3.83;;;;;;;;;;4995126;28;20126;-70
2021/01/27 12:20:38;;;;;;;6.50;3.70;;;;;;;;;;4994630;28;20077;-70
2021/01/27 12:23:04;;;;;;;8.53;4.00;;;;;;;;;;4994075;28;20289;-71
2021/01/27 12:25:30;;;;;;;7.50;4.67;;;;;;;;;;4992983;28;20030;-71
2021/01/27 12:27:56;;;;;;;7.57;4.63;;;;;;;;;;4994147;28;20014;-70
2021/01/27 12:30:22;;;;;;;10.70;4.30;;;;;;;;;;4994097;28;20073;-70
2021/01/27 12:32:49;;;;;;;9.03;5.40;;;;;;;;;;4994137;28;20379;-70
2021/01/27 12:35:16;;;;;;;8.77;4.40;;;;;;;;;;4993785;28;20033;-71
2021/01/27 12:37:42;;;;;;;7.03;4.57;;;;;;;;;;4994195;28;20030;-71
2021/01/27 12:40:10;;;;;;;7.00;4.50;;;;;;;;;;4993887;28;20040;-69
2021/01/27 12:42:36;;;;;;;6.17;4.23;;;;;;;;;;4994569;28;20143;-70
2021/01/27 12:45:03;;;;;;;7.63;5.40;;;;;;;;;;4994094;28;20104;-71
2021/01/27 12:47:29;;;;;;;8.17;5.00;;;;;;;;;;5007439;28;20026;-71
2021/01/27 12:49:55;;;;;;;9.37;5.53;;;;;;;;;;5009419;28;20050;-70
2021/01/27 12:52:21;;;;;;;7.77;5.40;;;;;;;;;;4994055;28;20034;-71
2021/01/27 12:54:47;;;;;;;7.37;4.93;;;;;;;;;;4994073;28;20379;-71
2021/01/27 12:57:13;;;;;;;8.63;5.47;;;;;;;;;;4994336;28;20050;-71
2021/01/27 12:59:40;;;;;;;10.20;6.30;;;;;;;;;;4994191;28;20035;-68
2021/01/27 13:02:06;;;;;;;11.03;6.40;;;;;;;;;;4992480;28;20034;-70
2021/01/27 13:04:32;;;;;;;11.50;6.27;;;;;;;;;;4990676;28;20037;-69
2021/01/27 13:06:58;;;;;;;10.27;6.67;;;;;;;;;;4990099;28;20034;-72
2021/01/27 13:09:24;;;;;;;11.53;6.87;;;;;;;;;;4991518;28;20046;-72
2021/01/27 13:11:53;;;;;;;7.07;4.57;;;;;;;;;;4993224;28;20030;-73
2021/01/27 13:14:20;;;;;;;9.87;6.10;;;;;;;;;;4993350;28;20030;-73
2021/01/27 13:16:46;;;;;;;9.17;5.70;;;;;;;;;;4992070;28;20089;-77
2021/01/27 13:19:12;;;;;;;8.50;5.90;;;;;;;;;;4993371;28;20026;-73
2021/01/27 13:21:38;;;;;;;10.10;5.33;;;;;;;;;;4992456;28;20049;-73
2021/01/27 13:24:05;;;;;;;6.57;4.60;;;;;;;;;;4992788;28;20052;-73
2021/01/27 13:26:31;;;;;;;6.70;4.03;;;;;;;;;;4993173;28;20041;-74
2021/01/27 13:28:57;;;;;;;6.33;4.00;;;;;;;;;;4992806;28;20126;-73
2021/01/27 13:31:23;;;;;;;7.40;4.40;;;;;;;;;;4992280;28;20030;-73
2021/01/27 13:33:49;;;;;;;5.83;4.10;;;;;;;;;;4991909;28;20533;-73
2021/01/27 13:36:15;;;;;;;6.90;3.93;;;;;;;;;;4992678;28;20053;-73
2021/01/27 13:38:42;;;;;;;8.07;4.20;;;;;;;;;;4992643;28;20034;-73
2021/01/27 13:41:08;;;;;;;6.23;4.33;;;;;;;;;;4992882;28;20054;-72
2021/01/27 13:43:34;;;;;;;9.23;3.90;;;;;;;;;;4992452;28;20034;-73
2021/01/27 13:46:00;;;;;;;6.63;4.17;;;;;;;;;;4991804;28;20037;-73
2021/01/27 13:48:26;;;;;;;7.17;4.60;;;;;;;;;;4990617;28;20351;-72
2021/01/27 13:50:52;;;;;;;6.27;3.60;;;;;;;;;;4990312;28;20117;-72
2021/01/27 13:53:18;;;;;;;17.00;4.43;;;;;;;;;;4990387;28;20034;-72
2021/01/27 13:55:44;;;;;;;9.57;4.37;;;;;;;;;;4992671;28;20497;-72
2021/01/27 13:58:10;;;;;;;26.20;4.90;;;;;;;;;;4992582;28;20118;-72
2021/01/27 14:00:37;;;;;;;6.10;3.80;;;;;;;;;;4992938;28;20033;-72
2021/01/27 14:03:03;;;;;;;8.50;4.40;;;;;;;;;;4992945;28;20085;-72
2021/01/27 14:05:29;;;;;;;6.00;3.63;;;;;;;;;;4992687;28;20065;-71
2021/01/27 14:07:56;;;;;;;7.30;3.63;;;;;;;;;;4992998;28;20027;-72
2021/01/27 14:10:23;;;;;;;6.43;4.50;;;;;;;;;;4992389;28;20066;-70
2021/01/27 14:12:49;;;;;;;6.97;3.83;;;;;;;;;;4993123;28;20117;-71
2021/01/27 14:15:16;;;;;;;6.30;3.33;;;;;;;;;;4992831;28;20034;-71
2021/01/27 14:17:43;;;;;;;5.97;3.93;;;;;;;;;;4992857;28;20510;-71
2021/01/27 14:20:10;;;;;;;5.17;3.20;;;;;;;;;;4992978;28;20491;-73
2021/01/27 14:22:36;;;;;;;4.73;3.10;;;;;;;;;;4991650;28;20058;-72
2021/01/27 14:25:02;;;;;;;5.23;3.70;;;;;;;;;;4992235;28;20054;-73
2021/01/27 14:27:29;;;;;;;7.63;3.50;;;;;;;;;;4992123;28;20022;-72
2021/01/27 14:29:55;;;;;;;7.97;3.33;;;;;;;;;;4991774;28;20045;-72
2021/01/27 14:32:21;;;;;;;4.50;3.23;;;;;;;;;;4992190;28;20022;-72
2021/01/27 14:34:47;;;;;;;6.43;3.63;;;;;;;;;;4993970;28;20062;-72
2021/01/27 14:37:13;;;;;;;6.53;3.23;;;;;;;;;;4996207;28;20022;-72
2021/01/27 14:39:39;;;;;;;5.60;3.30;;;;;;;;;;4995691;28;20026;-73
2021/01/27 14:42:05;;;;;;;7.67;3.00;;;;;;;;;;4995738;28;20023;-72
2021/01/27 14:44:34;;;;;;;5.57;3.30;;;;;;;;;;4994660;28;20068;-70